RYR6CM LIME-EPPO
Flight info
| Callsign | RYR6CM |
|---|---|
| Flight time | 1h 13m |
| Altitude | 18000 |
| Route | LEGLO L615 OSKOR M985 TAGIP/N0448F340 DCT BRENO/N0448F330 DCT TULSI DCT BEPAS DCT TOMTI DCT AKAPI |
| Aircraft | B738/M-SDE2E3FGHIRWXY/LB1 |
Departure
| Time | 2026-05-06 12:01 |
|---|---|
| Airport | Il Caravaggio International Airport (LIME) |
Arrival
| Time | 2026-05-06 13:14 |
|---|---|
| Airport | Poznań-Ławica Airport (EPPO) |
| Time | Latitude | Longitude | Altitude | Speed | Heading |
|---|---|---|---|---|---|
| 2026-05-06 11:39 | 45.66680 | 9.69799 | 786 ft | 0 kts | 195° |
| 2026-05-06 11:54 | 45.66693 | 9.69804 | 786 ft | 4 kts | 197° |
| 2026-05-06 11:54 | 45.66719 | 9.69816 | 786 ft | 4 kts | 202° |
| 2026-05-06 11:54 | 45.66744 | 9.69832 | 786 ft | 4 kts | 212° |
| 2026-05-06 11:55 | 45.66763 | 9.69856 | 786 ft | 4 kts | 246° |
| 2026-05-06 11:55 | 45.66766 | 9.69874 | 786 ft | 0 kts | 285° |
| 2026-05-06 11:57 | 45.66771 | 9.69849 | 786 ft | 12 kts | 285° |
| 2026-05-06 11:57 | 45.66811 | 9.69637 | 786 ft | 25 kts | 284° |
| 2026-05-06 11:57 | 45.66853 | 9.69410 | 786 ft | 23 kts | 285° |
| 2026-05-06 11:57 | 45.66893 | 9.69193 | 786 ft | 22 kts | 285° |
| 2026-05-06 11:58 | 45.66923 | 9.68997 | 786 ft | 15 kts | 320° |
| 2026-05-06 11:58 | 45.66969 | 9.68986 | 786 ft | 0 kts | 13° |
| 2026-05-06 11:59 | 45.66976 | 9.68988 | 786 ft | 7 kts | 13° |
| 2026-05-06 12:00 | 45.67058 | 9.69046 | 786 ft | 15 kts | 60° |
| 2026-05-06 12:00 | 45.67062 | 9.69189 | 786 ft | 15 kts | 106° |
| 2026-05-06 12:00 | 45.66983 | 9.69625 | 786 ft | 93 kts | 105° |
| 2026-05-06 12:00 | 45.66740 | 9.70928 | 882 ft | 168 kts | 107° |
| 2026-05-06 12:01 | 45.66403 | 9.72612 | 1926 ft | 180 kts | 105° |
| 2026-05-06 12:01 | 45.65923 | 9.74312 | 2966 ft | 190 kts | 122° |
| 2026-05-06 12:01 | 45.65203 | 9.75997 | 3474 ft | 212 kts | 121° |
| 2026-05-06 12:01 | 45.64459 | 9.77952 | 3883 ft | 232 kts | 121° |
| 2026-05-06 12:02 | 45.63605 | 9.79960 | 4504 ft | 239 kts | 134° |
| 2026-05-06 12:02 | 45.62289 | 9.81353 | 5348 ft | 236 kts | 152° |
| 2026-05-06 12:02 | 45.60839 | 9.82542 | 6196 ft | 243 kts | 153° |
| 2026-05-06 12:02 | 45.59371 | 9.83731 | 7273 ft | 243 kts | 154° |
| 2026-05-06 12:03 | 45.57895 | 9.84938 | 8327 ft | 246 kts | 154° |
| 2026-05-06 12:03 | 45.56411 | 9.86218 | 9222 ft | 259 kts | 147° |
| 2026-05-06 12:03 | 45.55313 | 9.88413 | 9861 ft | 290 kts | 111° |
| 2026-05-06 12:03 | 45.55164 | 9.91385 | 10390 ft | 321 kts | 84° |
| 2026-05-06 12:04 | 45.55866 | 9.94596 | 10641 ft | 355 kts | 68° |
| 2026-05-06 12:04 | 45.57212 | 9.97668 | 11235 ft | 373 kts | 54° |
| 2026-05-06 12:04 | 45.58873 | 10.00602 | 11839 ft | 383 kts | 51° |
| 2026-05-06 12:04 | 45.60553 | 10.03504 | 12520 ft | 385 kts | 53° |
| 2026-05-06 12:05 | 45.62216 | 10.06532 | 13255 ft | 390 kts | 54° |
| 2026-05-06 12:05 | 45.63865 | 10.09667 | 13997 ft | 398 kts | 55° |
| 2026-05-06 12:05 | 45.65515 | 10.12869 | 14867 ft | 403 kts | 56° |
| 2026-05-06 12:05 | 45.67160 | 10.16134 | 15788 ft | 406 kts | 56° |
| 2026-05-06 12:06 | 45.68819 | 10.19462 | 16690 ft | 412 kts | 57° |
| 2026-05-06 12:06 | 45.70496 | 10.22814 | 17597 ft | 418 kts | 56° |
| 2026-05-06 12:06 | 45.72198 | 10.26231 | 18360 ft | 425 kts | 57° |
| 2026-05-06 12:06 | 45.73928 | 10.29710 | 19027 ft | 433 kts | 57° |
| 2026-05-06 12:07 | 45.75689 | 10.33247 | 19715 ft | 439 kts | 57° |
| 2026-05-06 12:07 | 45.77477 | 10.36825 | 20367 ft | 445 kts | 56° |
| 2026-05-06 12:07 | 45.79288 | 10.40459 | 21042 ft | 451 kts | 56° |
| 2026-05-06 12:07 | 45.81121 | 10.44148 | 21702 ft | 458 kts | 56° |
| 2026-05-06 12:08 | 45.82978 | 10.47894 | 22327 ft | 464 kts | 56° |
| 2026-05-06 12:08 | 45.84865 | 10.51706 | 22880 ft | 472 kts | 56° |
| 2026-05-06 12:08 | 45.86778 | 10.55572 | 23497 ft | 477 kts | 56° |
| 2026-05-06 12:08 | 45.88703 | 10.59468 | 24087 ft | 481 kts | 56° |
| 2026-05-06 12:09 | 45.90661 | 10.63397 | 24574 ft | 487 kts | 54° |
| 2026-05-06 12:09 | 45.92910 | 10.67003 | 25030 ft | 494 kts | 43° |
| 2026-05-06 12:09 | 45.95628 | 10.70145 | 25545 ft | 498 kts | 33° |
| 2026-05-06 12:09 | 45.98598 | 10.72614 | 26027 ft | 500 kts | 22° |
| 2026-05-06 12:10 | 46.01776 | 10.74663 | 26602 ft | 502 kts | 21° |
| 2026-05-06 12:10 | 46.05002 | 10.76669 | 27069 ft | 506 kts | 20° |
| 2026-05-06 12:10 | 46.08243 | 10.78680 | 27619 ft | 510 kts | 20° |
| 2026-05-06 12:10 | 46.11512 | 10.80735 | 28095 ft | 515 kts | 21° |
| 2026-05-06 12:11 | 46.14804 | 10.82831 | 28603 ft | 519 kts | 21° |
| 2026-05-06 12:11 | 46.18078 | 10.84939 | 29110 ft | 522 kts | 21° |
| 2026-05-06 12:11 | 46.21453 | 10.87128 | 29538 ft | 528 kts | 21° |
| 2026-05-06 12:11 | 46.24807 | 10.89311 | 30003 ft | 530 kts | 21° |
| 2026-05-06 12:12 | 46.28172 | 10.91509 | 30536 ft | 529 kts | 21° |
| 2026-05-06 12:12 | 46.31518 | 10.93699 | 31059 ft | 527 kts | 21° |
| 2026-05-06 12:12 | 46.34814 | 10.95856 | 31539 ft | 527 kts | 21° |
| 2026-05-06 12:12 | 46.38197 | 10.98071 | 31993 ft | 527 kts | 21° |
| 2026-05-06 12:13 | 46.41537 | 11.00259 | 32367 ft | 527 kts | 21° |
| 2026-05-06 12:13 | 46.44831 | 11.02420 | 32890 ft | 525 kts | 21° |
| 2026-05-06 12:13 | 46.48150 | 11.04600 | 33382 ft | 524 kts | 21° |
| 2026-05-06 12:13 | 46.51478 | 11.06788 | 33791 ft | 525 kts | 21° |
| 2026-05-06 12:14 | 46.54810 | 11.08982 | 34176 ft | 525 kts | 21° |
| 2026-05-06 12:14 | 46.58122 | 11.11167 | 34775 ft | 519 kts | 21° |
| 2026-05-06 12:14 | 46.61370 | 11.13313 | 35610 ft | 506 kts | 21° |
| 2026-05-06 12:14 | 46.64549 | 11.15417 | 36381 ft | 497 kts | 21° |
| 2026-05-06 12:15 | 46.67687 | 11.17496 | 36870 ft | 495 kts | 21° |
| 2026-05-06 12:15 | 46.70856 | 11.19594 | 36879 ft | 502 kts | 21° |
| 2026-05-06 12:15 | 46.77222 | 11.23818 | 36882 ft | 500 kts | 21° |
| 2026-05-06 12:16 | 46.83496 | 11.27999 | 36894 ft | 495 kts | 22° |
| 2026-05-06 12:16 | 46.89710 | 11.32147 | 36851 ft | 493 kts | 22° |
| 2026-05-06 12:17 | 46.95935 | 11.36317 | 36843 ft | 492 kts | 22° |
| 2026-05-06 12:17 | 47.02214 | 11.40247 | 36853 ft | 487 kts | 18° |
| 2026-05-06 12:18 | 47.08625 | 11.43794 | 36837 ft | 498 kts | 18° |
| 2026-05-06 12:18 | 47.15141 | 11.47332 | 36794 ft | 500 kts | 18° |
| 2026-05-06 12:19 | 47.21656 | 11.51023 | 36777 ft | 501 kts | 19° |
| 2026-05-06 12:19 | 47.28077 | 11.54705 | 36781 ft | 497 kts | 19° |
| 2026-05-06 12:20 | 47.34566 | 11.58412 | 36785 ft | 505 kts | 18° |
| 2026-05-06 12:20 | 47.41181 | 11.62188 | 36759 ft | 511 kts | 19° |
| 2026-05-06 12:21 | 47.47774 | 11.65991 | 36771 ft | 507 kts | 20° |
| 2026-05-06 12:21 | 47.54344 | 11.69766 | 36741 ft | 507 kts | 19° |
| 2026-05-06 12:22 | 47.60928 | 11.73567 | 36721 ft | 507 kts | 19° |
| 2026-05-06 12:22 | 47.67499 | 11.77399 | 36734 ft | 509 kts | 23° |
| 2026-05-06 12:23 | 47.73447 | 11.83090 | 36726 ft | 511 kts | 43° |
| 2026-05-06 12:23 | 47.78604 | 11.90331 | 36740 ft | 510 kts | 44° |
| 2026-05-06 12:24 | 47.83712 | 11.97682 | 36755 ft | 511 kts | 44° |
| 2026-05-06 12:24 | 47.88863 | 12.05001 | 36750 ft | 512 kts | 44° |
| 2026-05-06 12:25 | 47.94011 | 12.12255 | 36765 ft | 512 kts | 43° |
| 2026-05-06 12:25 | 47.99191 | 12.19553 | 36768 ft | 512 kts | 43° |
| 2026-05-06 12:26 | 48.04366 | 12.26872 | 36765 ft | 511 kts | 43° |
| 2026-05-06 12:26 | 48.09524 | 12.34193 | 36768 ft | 510 kts | 43° |
| 2026-05-06 12:27 | 48.14664 | 12.41512 | 36759 ft | 509 kts | 43° |
| 2026-05-06 12:27 | 48.19793 | 12.48836 | 36778 ft | 509 kts | 43° |
| 2026-05-06 12:28 | 48.24910 | 12.56164 | 36769 ft | 509 kts | 43° |
| 2026-05-06 12:28 | 48.30022 | 12.63507 | 36772 ft | 508 kts | 44° |
| 2026-05-06 12:29 | 48.35126 | 12.70859 | 36768 ft | 508 kts | 44° |
| 2026-05-06 12:29 | 48.40230 | 12.78233 | 36779 ft | 508 kts | 44° |
| 2026-05-06 12:30 | 48.45297 | 12.85575 | 36780 ft | 508 kts | 44° |
| 2026-05-06 12:30 | 48.50390 | 12.92975 | 36778 ft | 508 kts | 44° |
| 2026-05-06 12:31 | 48.55476 | 13.00388 | 36783 ft | 508 kts | 44° |
| 2026-05-06 12:31 | 48.60552 | 13.07808 | 36786 ft | 508 kts | 44° |
| 2026-05-06 12:32 | 48.65626 | 13.15248 | 36778 ft | 508 kts | 44° |
| 2026-05-06 12:32 | 48.70698 | 13.22706 | 36786 ft | 508 kts | 44° |
| 2026-05-06 12:33 | 48.75728 | 13.30125 | 36792 ft | 508 kts | 44° |
| 2026-05-06 12:33 | 48.80786 | 13.37607 | 36795 ft | 508 kts | 44° |
| 2026-05-06 12:34 | 48.85840 | 13.45106 | 36781 ft | 508 kts | 44° |
| 2026-05-06 12:34 | 48.91132 | 13.52194 | 36789 ft | 506 kts | 32° |
| 2026-05-06 12:35 | 48.97247 | 13.57444 | 36802 ft | 505 kts | 26° |
| 2026-05-06 12:35 | 49.03478 | 13.62443 | 36802 ft | 505 kts | 26° |
| 2026-05-06 12:36 | 49.09675 | 13.67499 | 36789 ft | 505 kts | 26° |
| 2026-05-06 12:36 | 49.15853 | 13.72636 | 36819 ft | 505 kts | 27° |
| 2026-05-06 12:37 | 49.22017 | 13.77804 | 36791 ft | 505 kts | 27° |
| 2026-05-06 12:37 | 49.28178 | 13.82986 | 36796 ft | 505 kts | 27° |
| 2026-05-06 12:38 | 49.34301 | 13.88145 | 36798 ft | 505 kts | 27° |
| 2026-05-06 12:38 | 49.40468 | 13.93353 | 36798 ft | 505 kts | 27° |
| 2026-05-06 12:39 | 49.46634 | 13.98574 | 36795 ft | 505 kts | 27° |
| 2026-05-06 12:39 | 49.51743 | 14.02914 | 36804 ft | 504 kts | 27° |
| 2026-05-06 12:40 | 49.57885 | 14.08144 | 36818 ft | 504 kts | 27° |
| 2026-05-06 12:40 | 49.64030 | 14.13392 | 36793 ft | 504 kts | 27° |
| 2026-05-06 12:41 | 49.70175 | 14.18655 | 36801 ft | 504 kts | 27° |
| 2026-05-06 12:41 | 49.76306 | 14.23922 | 36802 ft | 504 kts | 27° |
| 2026-05-06 12:42 | 49.82429 | 14.29196 | 36802 ft | 503 kts | 27° |
| 2026-05-06 12:42 | 49.88529 | 14.34467 | 36799 ft | 502 kts | 27° |
| 2026-05-06 12:43 | 49.94624 | 14.39749 | 36798 ft | 501 kts | 27° |
| 2026-05-06 12:43 | 50.00705 | 14.45033 | 36812 ft | 500 kts | 27° |
| 2026-05-06 12:44 | 50.06736 | 14.50290 | 36800 ft | 499 kts | 27° |
| 2026-05-06 12:44 | 50.12784 | 14.55577 | 36804 ft | 498 kts | 27° |
| 2026-05-06 12:45 | 50.18826 | 14.60874 | 36802 ft | 497 kts | 27° |
| 2026-05-06 12:46 | 50.27868 | 14.68831 | 36800 ft | 497 kts | 27° |
| 2026-05-06 12:46 | 50.33860 | 14.74123 | 36792 ft | 497 kts | 27° |
| 2026-05-06 12:47 | 50.39884 | 14.79459 | 36806 ft | 497 kts | 28° |
| 2026-05-06 12:47 | 50.45902 | 14.84804 | 36789 ft | 497 kts | 28° |
| 2026-05-06 12:47 | 50.48921 | 14.87492 | 36526 ft | 500 kts | 28° |
| 2026-05-06 12:48 | 50.51946 | 14.90189 | 36006 ft | 500 kts | 28° |
| 2026-05-06 12:48 | 50.54971 | 14.92891 | 35420 ft | 501 kts | 28° |
| 2026-05-06 12:48 | 50.58014 | 14.95612 | 34786 ft | 503 kts | 27° |
| 2026-05-06 12:48 | 50.61057 | 14.98337 | 34155 ft | 505 kts | 27° |
| 2026-05-06 12:49 | 50.64121 | 15.01085 | 33415 ft | 507 kts | 27° |
| 2026-05-06 12:49 | 50.67147 | 15.03804 | 32669 ft | 508 kts | 27° |
| 2026-05-06 12:49 | 50.70223 | 15.06573 | 32049 ft | 506 kts | 27° |
| 2026-05-06 12:49 | 50.73283 | 15.09331 | 31571 ft | 509 kts | 27° |
| 2026-05-06 12:50 | 50.76375 | 15.12120 | 31079 ft | 515 kts | 27° |
| 2026-05-06 12:50 | 50.79496 | 15.14941 | 30583 ft | 518 kts | 27° |
| 2026-05-06 12:50 | 50.82622 | 15.17771 | 30092 ft | 518 kts | 27° |
| 2026-05-06 12:50 | 50.85751 | 15.20620 | 29508 ft | 518 kts | 28° |
| 2026-05-06 12:51 | 50.88874 | 15.23450 | 28952 ft | 517 kts | 28° |
| 2026-05-06 12:51 | 50.91993 | 15.26280 | 28401 ft | 516 kts | 28° |
| 2026-05-06 12:51 | 50.95054 | 15.29096 | 27877 ft | 498 kts | 29° |
| 2026-05-06 12:51 | 50.97869 | 15.32134 | 27105 ft | 487 kts | 36° |
| 2026-05-06 12:52 | 51.00511 | 15.35386 | 26533 ft | 473 kts | 38° |
| 2026-05-06 12:52 | 51.02998 | 15.38582 | 26062 ft | 460 kts | 38° |
| 2026-05-06 12:52 | 51.05442 | 15.41755 | 25599 ft | 447 kts | 38° |
| 2026-05-06 12:52 | 51.07819 | 15.44825 | 25144 ft | 435 kts | 38° |
| 2026-05-06 12:53 | 51.10151 | 15.47813 | 24704 ft | 426 kts | 38° |
| 2026-05-06 12:53 | 51.12457 | 15.50744 | 24293 ft | 422 kts | 38° |
| 2026-05-06 12:53 | 51.14748 | 15.53640 | 23871 ft | 419 kts | 38° |
| 2026-05-06 12:53 | 51.17050 | 15.56543 | 23431 ft | 428 kts | 38° |
| 2026-05-06 12:54 | 51.19412 | 15.59521 | 22928 ft | 436 kts | 38° |
| 2026-05-06 12:54 | 51.21771 | 15.62499 | 22437 ft | 429 kts | 38° |
| 2026-05-06 12:54 | 51.24093 | 15.65434 | 21982 ft | 421 kts | 38° |
| 2026-05-06 12:54 | 51.26368 | 15.68313 | 21543 ft | 413 kts | 38° |
| 2026-05-06 12:55 | 51.28599 | 15.71142 | 21117 ft | 406 kts | 38° |
| 2026-05-06 12:55 | 51.30797 | 15.73932 | 20694 ft | 400 kts | 38° |
| 2026-05-06 12:55 | 51.32962 | 15.76684 | 20298 ft | 396 kts | 38° |
| 2026-05-06 12:55 | 51.35113 | 15.79420 | 19891 ft | 393 kts | 38° |
| 2026-05-06 12:56 | 51.37222 | 15.82108 | 19495 ft | 393 kts | 38° |
| 2026-05-06 12:56 | 51.39395 | 15.84879 | 19097 ft | 405 kts | 38° |
| 2026-05-06 12:56 | 51.41606 | 15.87703 | 18656 ft | 407 kts | 39° |
| 2026-05-06 12:56 | 51.43804 | 15.90514 | 18228 ft | 401 kts | 39° |
| 2026-05-06 12:57 | 51.45967 | 15.93283 | 17754 ft | 395 kts | 38° |
| 2026-05-06 12:57 | 51.48103 | 15.96022 | 17309 ft | 389 kts | 38° |
| 2026-05-06 12:57 | 51.50202 | 15.98718 | 16884 ft | 383 kts | 38° |
| 2026-05-06 12:57 | 51.52261 | 16.01367 | 16474 ft | 377 kts | 38° |
| 2026-05-06 12:58 | 51.54293 | 16.03982 | 16088 ft | 372 kts | 38° |
| 2026-05-06 12:58 | 51.56305 | 16.06574 | 15704 ft | 370 kts | 38° |
| 2026-05-06 12:58 | 51.58311 | 16.09162 | 15318 ft | 369 kts | 37° |
| 2026-05-06 12:58 | 51.60333 | 16.11771 | 14926 ft | 377 kts | 37° |
| 2026-05-06 12:59 | 51.62381 | 16.14418 | 14529 ft | 378 kts | 37° |
| 2026-05-06 12:59 | 51.64412 | 16.17047 | 14124 ft | 371 kts | 37° |
| 2026-05-06 12:59 | 51.66408 | 16.19636 | 13755 ft | 365 kts | 37° |
| 2026-05-06 12:59 | 51.68372 | 16.22186 | 13344 ft | 360 kts | 37° |
| 2026-05-06 13:00 | 51.70306 | 16.24698 | 12932 ft | 354 kts | 37° |
| 2026-05-06 13:00 | 51.72215 | 16.27181 | 12538 ft | 349 kts | 37° |
| 2026-05-06 13:00 | 51.74103 | 16.29636 | 12166 ft | 349 kts | 37° |
| 2026-05-06 13:00 | 51.75975 | 16.32075 | 11789 ft | 350 kts | 37° |
| 2026-05-06 13:01 | 51.77912 | 16.34602 | 11416 ft | 358 kts | 37° |
| 2026-05-06 13:01 | 51.79858 | 16.37141 | 11037 ft | 361 kts | 37° |
| 2026-05-06 13:01 | 51.81803 | 16.39684 | 10627 ft | 357 kts | 38° |
| 2026-05-06 13:01 | 51.83685 | 16.42149 | 10412 ft | 346 kts | 38° |
| 2026-05-06 13:02 | 51.85526 | 16.44566 | 10259 ft | 334 kts | 38° |
| 2026-05-06 13:02 | 51.87302 | 16.46897 | 10107 ft | 323 kts | 38° |
| 2026-05-06 13:02 | 51.89018 | 16.49152 | 9971 ft | 313 kts | 38° |
| 2026-05-06 13:02 | 51.90684 | 16.51343 | 9842 ft | 304 kts | 38° |
| 2026-05-06 13:03 | 51.92301 | 16.53471 | 9681 ft | 296 kts | 38° |
| 2026-05-06 13:03 | 51.93898 | 16.55573 | 9396 ft | 294 kts | 38° |
| 2026-05-06 13:03 | 51.95478 | 16.57656 | 9120 ft | 291 kts | 38° |
| 2026-05-06 13:03 | 51.97043 | 16.59722 | 8857 ft | 289 kts | 38° |
| 2026-05-06 13:04 | 51.98596 | 16.61773 | 8591 ft | 287 kts | 38° |
| 2026-05-06 13:04 | 52.00138 | 16.63811 | 8324 ft | 285 kts | 38° |
| 2026-05-06 13:04 | 52.01669 | 16.65836 | 8062 ft | 284 kts | 38° |
| 2026-05-06 13:04 | 52.03219 | 16.67888 | 7817 ft | 292 kts | 38° |
| 2026-05-06 13:05 | 52.04789 | 16.69968 | 7536 ft | 296 kts | 38° |
| 2026-05-06 13:05 | 52.06383 | 16.72084 | 7279 ft | 295 kts | 38° |
| 2026-05-06 13:05 | 52.07982 | 16.74206 | 6983 ft | 298 kts | 38° |
| 2026-05-06 13:05 | 52.09590 | 16.76344 | 6702 ft | 299 kts | 38° |
| 2026-05-06 13:06 | 52.11202 | 16.78491 | 6419 ft | 298 kts | 38° |
| 2026-05-06 13:06 | 52.12792 | 16.80610 | 6299 ft | 290 kts | 38° |
| 2026-05-06 13:06 | 52.14353 | 16.82693 | 6089 ft | 291 kts | 38° |
| 2026-05-06 13:06 | 52.15923 | 16.84788 | 5826 ft | 292 kts | 38° |
| 2026-05-06 13:07 | 52.17497 | 16.86890 | 5559 ft | 293 kts | 38° |
| 2026-05-06 13:07 | 52.19066 | 16.88990 | 5253 ft | 291 kts | 38° |
| 2026-05-06 13:07 | 52.20632 | 16.91087 | 4895 ft | 291 kts | 37° |
| 2026-05-06 13:07 | 52.22187 | 16.93179 | 4642 ft | 290 kts | 37° |
| 2026-05-06 13:08 | 52.23749 | 16.95285 | 4308 ft | 292 kts | 38° |
| 2026-05-06 13:08 | 52.25317 | 16.97377 | 3998 ft | 288 kts | 37° |
| 2026-05-06 13:08 | 52.26848 | 16.99427 | 3765 ft | 281 kts | 37° |
| 2026-05-06 13:08 | 52.28332 | 17.01423 | 3638 ft | 271 kts | 37° |
| 2026-05-06 13:09 | 52.29763 | 17.03349 | 3534 ft | 261 kts | 37° |
| 2026-05-06 13:09 | 52.31135 | 17.05199 | 3461 ft | 252 kts | 37° |
| 2026-05-06 13:09 | 52.32453 | 17.06978 | 3388 ft | 239 kts | 37° |
| 2026-05-06 13:09 | 52.33754 | 17.08480 | 3189 ft | 226 kts | 18° |
| 2026-05-06 13:10 | 52.35228 | 17.08714 | 3101 ft | 209 kts | 343° |
| 2026-05-06 13:10 | 52.36447 | 17.07715 | 3017 ft | 186 kts | 303° |
| 2026-05-06 13:10 | 52.37033 | 17.05939 | 3006 ft | 175 kts | 288° |
| 2026-05-06 13:10 | 52.37478 | 17.04091 | 2999 ft | 174 kts | 285° |
| 2026-05-06 13:11 | 52.37937 | 17.02211 | 2922 ft | 183 kts | 289° |
| 2026-05-06 13:11 | 52.38434 | 17.00285 | 2663 ft | 178 kts | 288° |
| 2026-05-06 13:11 | 52.38878 | 16.98461 | 2334 ft | 168 kts | 287° |
| 2026-05-06 13:11 | 52.39284 | 16.96688 | 1979 ft | 161 kts | 287° |
| 2026-05-06 13:12 | 52.39700 | 16.95029 | 1696 ft | 153 kts | 288° |
| 2026-05-06 13:12 | 52.40037 | 16.93429 | 1477 ft | 145 kts | 286° |
| 2026-05-06 13:12 | 52.40325 | 16.91929 | 1294 ft | 134 kts | 285° |
| 2026-05-06 13:12 | 52.40596 | 16.90522 | 1099 ft | 126 kts | 286° |
| 2026-05-06 13:13 | 52.40850 | 16.89121 | 955 ft | 132 kts | 282° |
| 2026-05-06 13:13 | 52.41120 | 16.87711 | 775 ft | 132 kts | 285° |
| 2026-05-06 13:13 | 52.41408 | 16.86257 | 600 ft | 134 kts | 285° |
| 2026-05-06 13:13 | 52.41682 | 16.84830 | 420 ft | 128 kts | 284° |
| 2026-05-06 13:14 | 52.41944 | 16.83462 | 295 ft | 118 kts | 284° |
| 2026-05-06 13:14 | 52.42151 | 16.82390 | 290 ft | 77 kts | 287° |
| 2026-05-06 13:14 | 52.42266 | 16.81789 | 287 ft | 34 kts | 287° |
| 2026-05-06 13:14 | 52.42302 | 16.81517 | 288 ft | 23 kts | 273° |
| 2026-05-06 13:15 | 52.42280 | 16.81264 | 287 ft | 22 kts | 257° |
| 2026-05-06 13:15 | 52.42230 | 16.81148 | 287 ft | 7 kts | 168° |
| 2026-05-06 13:15 | 52.42198 | 16.81246 | 289 ft | 21 kts | 108° |
| 2026-05-06 13:15 | 52.42152 | 16.81490 | 287 ft | 23 kts | 107° |
| 2026-05-06 13:16 | 52.42104 | 16.81738 | 287 ft | 23 kts | 107° |
| 2026-05-06 13:16 | 52.42057 | 16.81979 | 292 ft | 22 kts | 108° |
| 2026-05-06 13:16 | 52.42011 | 16.82213 | 289 ft | 21 kts | 108° |
| 2026-05-06 13:16 | 52.41968 | 16.82440 | 291 ft | 21 kts | 107° |
| 2026-05-06 13:17 | 52.41925 | 16.82661 | 291 ft | 20 kts | 107° |
| 2026-05-06 13:17 | 52.41885 | 16.82873 | 293 ft | 16 kts | 112° |
| 2026-05-06 13:17 | 52.41811 | 16.82898 | 287 ft | 12 kts | 196° |
| 2026-05-06 13:17 | 52.41731 | 16.82854 | 287 ft | 12 kts | 200° |
| 2026-05-06 13:18 | 52.41661 | 16.82895 | 287 ft | 12 kts | 114° |
| 2026-05-06 13:18 | 52.41639 | 16.83036 | 289 ft | 13 kts | 102° |
| 2026-05-06 13:18 | 52.41619 | 16.83175 | 287 ft | 11 kts | 102° |
| 2026-05-06 13:18 | 52.41594 | 16.83211 | 287 ft | 5 kts | 185° |
| 2026-05-06 13:19 | 52.41565 | 16.83201 | 287 ft | 2 kts | 192° |
| 2026-05-06 13:19 | 52.41555 | 16.83198 | 287 ft | 1 kts | 192° |
| 2026-05-06 13:19 | 52.41553 | 16.83197 | 287 ft | 1 kts | 192° |
| 2026-05-06 13:19 | 52.41552 | 16.83196 | 287 ft | 0 kts | 194° |